首页
METAR-TAF:

METAR-TAF

机场 :

伊利, 宾夕法尼亚州, 美国

纬度: 42-04-48N, 经度: 080-10-57W, 海拔: 223米

当前天气观测

该预报发布于35分钟前的16:51 UTC
风速3节,风向南转西南
温度 2°C
湿度 55%
气压 1026 hPa
能見度: 16.1公里
天空无云

METAR: KERI 171651Z 21003KT 10SM CLR 02/M06 A3030 RMK AO2 SLP268 T00221056

时间: 12:26 (17:26 UTC)

预报

该预报发布于2小时和22分钟前的15:04 UTC
预报有效从17日的 15点(UTC)到 18日的 12点(UTC)
风速4节,风向
能見度: 10公里
多云层高于20000英尺
从 18日的 0200点(UTC)
风速12节,风向东南,有时为20节阵风
能見度: 10公里
阴天层高于7000英尺
从 18日的 0500点(UTC)
风速15节,风向南转南东,有时为28节阵风
能見度: 10公里
阴天层高于3500英尺
小雨
从 18日的 0900点(UTC)
风速23节,风向南转南东,有时为35节阵风
能見度: 6.4公里
阴天层高于2000英尺

TAF: KERI 171504Z 1715/1812 10004KT P6SM BKN200 FM180200 13012G20KT P6SM OVC070 FM180500 15015G28KT P6SM -RA OVC035 FM180900 16023G35KT 4SM RA OVC020

超过4000个机场的气象观测和天气预报(METAR&TAF报告)。

可查询的气象台以黄色和红色小点在地图上表示。

将鼠标移到小点上方,可查看气象台名称。

然后点击查看天气观测和预报。

如需切换地图:点击带黑十字的绿色按钮放大地图;点击带横线的绿色按钮缩小地图;或者点击绿色箭头查看邻近地区的地图。


METAR-TAF: